Fairport, NY

1:45 AM EST on February 07, 2016 (GMT -0500)
White Brook | | Change Station
CLOSE
Current Station
Personal Weather Station
Location: Fairport, NY
Elevation: 531 ft
Nearby Weather Stations

Elev 531 ft 43.07 °N, 77.39 °W | Updated 15 seconds ago

Overcast
Overcast
31.0 °F
Feels Like 31 °F
N
0.0
Wind Variable Wind from SE
Gusts 2.0 mph

Today
High -- | Low -- °F
--% Chance of Precip.
Yesterday
High -- | Low -- °F
Precip. -- in
Pressure 30.16 in
Visibility 10.0 miles
Clouds Overcast 7000 ft
Windchill 31 °F
Dew Point 23 °F
Humidity 73%
Rainfall 0.00 in
Snow Depth Not available.
7:18 AM 5:29 PM
Waning Crescent, 2% visible
METAR KROC 070554Z 23007KT 10SM OVC070 M01/M04 A3013 RMK AO2 SLP213 T10061039 10000 21017 58009
Pressure 30.16 in
Visibility 10.0 miles
Clouds Overcast 7000 ft
Windchill 31 °F
Dew Point 23 °F
Humidity 73%
Rainfall 0.00 in
Snow Depth Not available.
7:18 AM 5:29 PM
Waning Crescent, 2% visible
METAR KROC 070554Z 23007KT 10SM OVC070 M01/M04 A3013 RMK AO2 SLP213 T10061039 10000 21017 58009

10-Day Weather Forecast

Almanac

Astronomy

Feb. 07, 2016 Rise Set
Actual Time
Civil Twilight
Nautical Twilight
Astronomical Twilight
Moon
Length of Visible Light
Length of Day
Tomorrow will be .
, % of the Moon is Illuminated

Today's Extremes

State Highs State Lows

Community

WunderPhotos

Upload Photos

1,891,174 photos uploaded!

WunderBlog® & News

Nearby

Air Quality

  Air Quality AQ Index Pollutant
Not available.

Snow Depth

Station Depth Elevation

Earthquake Activity

City Distance Mag. Time & Date
Minimum magnitude displayed is 2.5.

Coastal Water Temperatures

Place Temperature

Stations

Nearby Weather Stations

Station Location Temp. Windchill Dew Point Humidity Wind Precip. Elev Updated Type
                   

Watches & Warnings

There are currently no watches in effect.